createdAt,value
2022-09-23T00:06:52.023Z,10.76
2022-09-23T00:23:40.790Z,10.63
2022-09-23T00:40:28.712Z,10.49
2022-09-23T00:57:20.268Z,10.46
2022-09-23T01:14:26.527Z,10.44
2022-09-23T01:31:21.142Z,10.33
2022-09-23T01:48:15.967Z,10.36
2022-09-23T02:05:08.712Z,10.39
2022-09-23T02:22:01.357Z,10.36
2022-09-23T02:38:54.422Z,10.21
2022-09-23T02:55:43.100Z,10.19
2022-09-23T03:12:37.120Z,10.19
2022-09-23T03:29:25.418Z,10.22
2022-09-23T03:46:15.462Z,10.19
2022-09-23T04:03:05.310Z,10.13
2022-09-23T04:19:56.426Z,9.96
2022-09-23T04:36:44.797Z,9.82
2022-09-23T04:53:32.823Z,9.69
2022-09-23T05:10:21.190Z,9.50
2022-09-23T05:27:09.786Z,9.46
2022-09-23T05:44:00.075Z,9.47
2022-09-23T06:00:49.604Z,9.45
2022-09-23T06:17:37.900Z,9.53
2022-09-23T06:34:27.328Z,9.77
2022-09-23T06:51:19.512Z,10.18
2022-09-23T07:08:10.610Z,10.54
2022-09-23T07:24:58.429Z,10.97
2022-09-23T07:41:46.548Z,11.34
2022-09-23T07:58:35.329Z,11.60
2022-09-23T08:15:23.551Z,11.88
2022-09-23T08:32:12.462Z,12.30
2022-09-23T08:49:02.661Z,12.39
2022-09-23T09:05:54.382Z,12.58
2022-09-23T09:22:51.297Z,13.15
2022-09-23T09:39:39.680Z,13.49
2022-09-23T09:56:35.858Z,13.75
2022-09-23T10:13:27.507Z,13.96
2022-09-23T10:30:25.549Z,14.19
2022-09-23T10:47:23.254Z,14.45
2022-09-23T11:04:53.034Z,14.47
2022-09-23T11:22:01.473Z,14.49
2022-09-23T11:38:53.396Z,14.71
2022-09-23T11:55:55.939Z,15.01
2022-09-23T12:12:53.152Z,15.00
2022-09-23T12:29:43.246Z,15.36
2022-09-23T12:46:31.558Z,15.21
2022-09-23T13:03:37.274Z,15.27
2022-09-23T13:20:40.947Z,15.22
2022-09-23T13:37:46.531Z,15.24
2022-09-23T13:54:37.700Z,15.16
2022-09-23T14:11:33.356Z,15.30
2022-09-23T14:28:25.684Z,15.33
2022-09-23T14:45:18.601Z,15.18
2022-09-23T15:02:42.843Z,15.10
2022-09-23T15:19:32.468Z,15.06
2022-09-23T15:36:23.128Z,14.91
2022-09-23T15:53:12.610Z,14.64
2022-09-23T16:10:00.606Z,14.38
2022-09-23T16:26:49.589Z,14.18
2022-09-23T16:43:41.270Z,13.83
2022-09-23T17:00:42.896Z,13.55
2022-09-23T17:17:31.400Z,13.20
2022-09-23T17:34:20.152Z,12.98
2022-09-23T17:51:11.240Z,12.93
2022-09-23T18:08:01.872Z,13.01
2022-09-23T18:24:53.234Z,13.16
2022-09-23T18:41:41.409Z,13.50
2022-09-23T18:58:29.952Z,13.72
2022-09-23T19:15:17.940Z,13.81
2022-09-23T19:32:06.944Z,13.77
2022-09-23T19:48:54.981Z,13.67
2022-09-23T20:05:43.272Z,13.52
2022-09-23T20:22:33.661Z,13.31
2022-09-23T20:39:21.761Z,12.89
2022-09-23T20:56:10.268Z,12.42
2022-09-23T21:12:58.440Z,12.12
2022-09-23T21:29:46.531Z,11.89
2022-09-23T21:46:35.521Z,11.80
2022-09-23T22:03:23.720Z,11.67
2022-09-23T22:20:12.796Z,11.44
2022-09-23T22:37:01.659Z,11.31
2022-09-23T22:53:49.768Z,11.26
2022-09-23T23:10:39.657Z,11.17
2022-09-23T23:27:28.066Z,11.09
2022-09-23T23:44:16.375Z,10.98
